sensor_id;sensor_type;location;lat;lon;timestamp;temperature;humidity
47590;DHT22;33316;52.298;9.056;2023-04-24T00:00:36;14.30;77.90
47590;DHT22;33316;52.298;9.056;2023-04-24T00:03:03;14.30;77.90
47590;DHT22;33316;52.298;9.056;2023-04-24T00:05:31;14.30;77.80
47590;DHT22;33316;52.298;9.056;2023-04-24T00:07:59;14.30;77.80
47590;DHT22;33316;52.298;9.056;2023-04-24T00:10:26;14.30;77.60
47590;DHT22;33316;52.298;9.056;2023-04-24T00:12:53;14.30;77.50
47590;DHT22;33316;52.298;9.056;2023-04-24T00:15:19;14.30;77.50
47590;DHT22;33316;52.298;9.056;2023-04-24T00:17:46;14.30;77.50
47590;DHT22;33316;52.298;9.056;2023-04-24T00:20:13;14.30;77.50
47590;DHT22;33316;52.298;9.056;2023-04-24T00:22:40;14.20;77.60
47590;DHT22;33316;52.298;9.056;2023-04-24T00:25:08;14.30;77.50
47590;DHT22;33316;52.298;9.056;2023-04-24T00:27:35;14.20;77.10
47590;DHT22;33316;52.298;9.056;2023-04-24T00:30:03;14.20;76.50
47590;DHT22;33316;52.298;9.056;2023-04-24T00:32:30;14.20;75.80
47590;DHT22;33316;52.298;9.056;2023-04-24T00:34:57;14.10;75.40
47590;DHT22;33316;52.298;9.056;2023-04-24T00:37:24;14.10;74.70
47590;DHT22;33316;52.298;9.056;2023-04-24T00:39:50;14.10;74.30
47590;DHT22;33316;52.298;9.056;2023-04-24T00:42:18;14.00;73.40
47590;DHT22;33316;52.298;9.056;2023-04-24T00:44:45;14.00;72.80
47590;DHT22;33316;52.298;9.056;2023-04-24T00:47:13;13.90;72.40
47590;DHT22;33316;52.298;9.056;2023-04-24T00:49:40;13.90;72.20
47590;DHT22;33316;52.298;9.056;2023-04-24T00:52:07;13.90;72.00
47590;DHT22;33316;52.298;9.056;2023-04-24T00:54:34;13.80;71.90
47590;DHT22;33316;52.298;9.056;2023-04-24T00:57:01;13.80;71.70
47590;DHT22;33316;52.298;9.056;2023-04-24T00:59:29;13.80;71.80
47590;DHT22;33316;52.298;9.056;2023-04-24T01:01:56;13.70;71.60
47590;DHT22;33316;52.298;9.056;2023-04-24T01:04:23;13.70;71.60
47590;DHT22;33316;52.298;9.056;2023-04-24T01:06:51;13.60;71.70
47590;DHT22;33316;52.298;9.056;2023-04-24T01:09:19;13.60;71.80
47590;DHT22;33316;52.298;9.056;2023-04-24T01:11:48;13.60;71.80
47590;DHT22;33316;52.298;9.056;2023-04-24T01:14:14;13.50;71.90
47590;DHT22;33316;52.298;9.056;2023-04-24T01:16:42;13.50;72.80
47590;DHT22;33316;52.298;9.056;2023-04-24T01:19:10;13.40;72.00
47590;DHT22;33316;52.298;9.056;2023-04-24T01:21:37;13.40;72.10
47590;DHT22;33316;52.298;9.056;2023-04-24T01:24:06;13.40;72.30
47590;DHT22;33316;52.298;9.056;2023-04-24T01:26:33;13.30;72.40
47590;DHT22;33316;52.298;9.056;2023-04-24T01:29:00;13.30;72.60
47590;DHT22;33316;52.298;9.056;2023-04-24T01:31:27;13.30;72.70
47590;DHT22;33316;52.298;9.056;2023-04-24T01:33:54;13.20;72.80
47590;DHT22;33316;52.298;9.056;2023-04-24T01:36:22;13.20;72.90
47590;DHT22;33316;52.298;9.056;2023-04-24T01:38:50;13.20;72.90
47590;DHT22;33316;52.298;9.056;2023-04-24T01:41:18;13.20;72.90
47590;DHT22;33316;52.298;9.056;2023-04-24T01:43:45;13.20;72.80
47590;DHT22;33316;52.298;9.056;2023-04-24T01:46:12;13.20;72.90
47590;DHT22;33316;52.298;9.056;2023-04-24T01:48:39;13.20;72.90
47590;DHT22;33316;52.298;9.056;2023-04-24T01:51:06;13.10;72.90
47590;DHT22;33316;52.298;9.056;2023-04-24T01:53:33;13.10;72.90
47590;DHT22;33316;52.298;9.056;2023-04-24T01:56:01;13.20;73.00
47590;DHT22;33316;52.298;9.056;2023-04-24T01:58:29;13.10;73.00
47590;DHT22;33316;52.298;9.056;2023-04-24T02:00:56;13.10;73.20
47590;DHT22;33316;52.298;9.056;2023-04-24T02:03:23;13.10;73.30
47590;DHT22;33316;52.298;9.056;2023-04-24T02:05:49;13.10;73.30
47590;DHT22;33316;52.298;9.056;2023-04-24T02:08:16;13.10;73.40
47590;DHT22;33316;52.298;9.056;2023-04-24T02:10:43;13.10;73.60
47590;DHT22;33316;52.298;9.056;2023-04-24T02:13:09;13.00;73.80
47590;DHT22;33316;52.298;9.056;2023-04-24T02:15:37;13.00;74.10
47590;DHT22;33316;52.298;9.056;2023-04-24T02:18:04;13.00;74.10
47590;DHT22;33316;52.298;9.056;2023-04-24T02:20:32;13.00;74.20
47590;DHT22;33316;52.298;9.056;2023-04-24T02:22:59;13.00;74.40
47590;DHT22;33316;52.298;9.056;2023-04-24T02:25:26;13.10;74.50
47590;DHT22;33316;52.298;9.056;2023-04-24T02:27:52;13.00;74.50
47590;DHT22;33316;52.298;9.056;2023-04-24T02:30:19;13.10;74.60
47590;DHT22;33316;52.298;9.056;2023-04-24T02:32:47;13.10;74.50
47590;DHT22;33316;52.298;9.056;2023-04-24T02:35:14;13.00;74.50
47590;DHT22;33316;52.298;9.056;2023-04-24T02:37:41;13.00;74.50
47590;DHT22;33316;52.298;9.056;2023-04-24T02:40:09;13.00;74.50
47590;DHT22;33316;52.298;9.056;2023-04-24T02:42:35;13.00;74.50
47590;DHT22;33316;52.298;9.056;2023-04-24T02:45:02;13.00;74.50
47590;DHT22;33316;52.298;9.056;2023-04-24T02:47:30;13.00;74.40
47590;DHT22;33316;52.298;9.056;2023-04-24T02:49:58;12.90;74.40
47590;DHT22;33316;52.298;9.056;2023-04-24T02:52:25;12.90;74.40
47590;DHT22;33316;52.298;9.056;2023-04-24T02:54:51;12.90;74.40
47590;DHT22;33316;52.298;9.056;2023-04-24T02:57:19;12.80;74.10
47590;DHT22;33316;52.298;9.056;2023-04-24T02:59:45;12.80;74.00
47590;DHT22;33316;52.298;9.056;2023-04-24T03:02:12;12.80;74.00
47590;DHT22;33316;52.298;9.056;2023-04-24T03:04:38;12.70;74.10
47590;DHT22;33316;52.298;9.056;2023-04-24T03:07:09;12.70;74.20
47590;DHT22;33316;52.298;9.056;2023-04-24T03:09:36;12.70;74.20
47590;DHT22;33316;52.298;9.056;2023-04-24T03:12:02;12.70;74.20
47590;DHT22;33316;52.298;9.056;2023-04-24T03:14:29;12.70;74.30
47590;DHT22;33316;52.298;9.056;2023-04-24T03:16:56;12.70;74.40
47590;DHT22;33316;52.298;9.056;2023-04-24T03:19:23;12.70;74.40
47590;DHT22;33316;52.298;9.056;2023-04-24T03:21:49;12.60;74.30
47590;DHT22;33316;52.298;9.056;2023-04-24T03:24:17;12.60;74.30
47590;DHT22;33316;52.298;9.056;2023-04-24T03:26:44;12.60;74.40
47590;DHT22;33316;52.298;9.056;2023-04-24T03:29:11;12.60;74.30
47590;DHT22;33316;52.298;9.056;2023-04-24T03:31:37;12.60;74.50
47590;DHT22;33316;52.298;9.056;2023-04-24T03:34:04;12.50;74.30
47590;DHT22;33316;52.298;9.056;2023-04-24T03:36:31;12.50;74.40
47590;DHT22;33316;52.298;9.056;2023-04-24T03:38:57;12.50;74.40
47590;DHT22;33316;52.298;9.056;2023-04-24T03:41:25;12.50;74.50
47590;DHT22;33316;52.298;9.056;2023-04-24T03:43:52;12.50;74.60
47590;DHT22;33316;52.298;9.056;2023-04-24T03:46:18;12.40;74.70
47590;DHT22;33316;52.298;9.056;2023-04-24T03:48:45;12.40;74.80
47590;DHT22;33316;52.298;9.056;2023-04-24T03:51:12;12.40;75.10
47590;DHT22;33316;52.298;9.056;2023-04-24T03:53:39;12.40;75.30
47590;DHT22;33316;52.298;9.056;2023-04-24T03:56:05;12.40;75.40
47590;DHT22;33316;52.298;9.056;2023-04-24T03:58:33;12.40;75.70
47590;DHT22;33316;52.298;9.056;2023-04-24T04:01:00;12.40;75.80
47590;DHT22;33316;52.298;9.056;2023-04-24T04:03:28;12.40;75.90
47590;DHT22;33316;52.298;9.056;2023-04-24T04:05:54;12.40;76.20
47590;DHT22;33316;52.298;9.056;2023-04-24T04:08:21;12.50;76.20
47590;DHT22;33316;52.298;9.056;2023-04-24T04:10:48;12.50;76.40
47590;DHT22;33316;52.298;9.056;2023-04-24T04:13:14;12.50;76.40
47590;DHT22;33316;52.298;9.056;2023-04-24T04:15:42;12.50;76.10
47590;DHT22;33316;52.298;9.056;2023-04-24T04:18:09;12.60;76.00
47590;DHT22;33316;52.298;9.056;2023-04-24T04:20:36;12.50;75.60
47590;DHT22;33316;52.298;9.056;2023-04-24T04:23:02;12.50;75.50
47590;DHT22;33316;52.298;9.056;2023-04-24T04:25:29;12.60;75.50
47590;DHT22;33316;52.298;9.056;2023-04-24T04:27:55;12.60;75.50
47590;DHT22;33316;52.298;9.056;2023-04-24T04:30:23;12.60;75.60
47590;DHT22;33316;52.298;9.056;2023-04-24T04:32:52;12.60;76.50
47590;DHT22;33316;52.298;9.056;2023-04-24T04:35:19;12.60;75.60
47590;DHT22;33316;52.298;9.056;2023-04-24T04:37:45;12.60;75.50
47590;DHT22;33316;52.298;9.056;2023-04-24T04:40:12;12.60;75.40
47590;DHT22;33316;52.298;9.056;2023-04-24T04:42:39;12.60;75.30
47590;DHT22;33316;52.298;9.056;2023-04-24T04:45:07;12.60;75.10
47590;DHT22;33316;52.298;9.056;2023-04-24T04:47:37;12.70;75.00
47590;DHT22;33316;52.298;9.056;2023-04-24T04:50:07;12.70;74.90
47590;DHT22;33316;52.298;9.056;2023-04-24T04:52:33;12.70;74.90
47590;DHT22;33316;52.298;9.056;2023-04-24T04:55:00;12.70;74.90
47590;DHT22;33316;52.298;9.056;2023-04-24T04:57:27;12.70;74.90
47590;DHT22;33316;52.298;9.056;2023-04-24T04:59:54;12.70;75.00
47590;DHT22;33316;52.298;9.056;2023-04-24T05:02:20;12.70;74.90
47590;DHT22;33316;52.298;9.056;2023-04-24T05:04:47;12.70;74.90
47590;DHT22;33316;52.298;9.056;2023-04-24T05:07:15;12.70;74.80
47590;DHT22;33316;52.298;9.056;2023-04-24T05:09:41;12.70;74.60
47590;DHT22;33316;52.298;9.056;2023-04-24T05:12:09;12.70;74.60
47590;DHT22;33316;52.298;9.056;2023-04-24T05:14:35;12.80;74.80
47590;DHT22;33316;52.298;9.056;2023-04-24T05:17:02;12.80;74.80
47590;DHT22;33316;52.298;9.056;2023-04-24T05:19:29;12.80;74.50
47590;DHT22;33316;52.298;9.056;2023-04-24T05:21:58;12.80;74.40
47590;DHT22;33316;52.298;9.056;2023-04-24T05:24:26;12.80;74.40
47590;DHT22;33316;52.298;9.056;2023-04-24T05:26:52;12.80;74.40
47590;DHT22;33316;52.298;9.056;2023-04-24T05:29:19;12.90;74.30
47590;DHT22;33316;52.298;9.056;2023-04-24T05:31:46;12.90;74.30
47590;DHT22;33316;52.298;9.056;2023-04-24T05:34:13;13.00;74.10
47590;DHT22;33316;52.298;9.056;2023-04-24T05:36:41;13.00;74.10
47590;DHT22;33316;52.298;9.056;2023-04-24T05:39:08;13.00;74.00
47590;DHT22;33316;52.298;9.056;2023-04-24T05:41:36;13.00;74.00
47590;DHT22;33316;52.298;9.056;2023-04-24T05:44:02;13.00;74.10
47590;DHT22;33316;52.298;9.056;2023-04-24T05:46:29;13.00;74.00
47590;DHT22;33316;52.298;9.056;2023-04-24T05:48:56;13.00;73.80
47590;DHT22;33316;52.298;9.056;2023-04-24T05:51:23;13.00;73.60
47590;DHT22;33316;52.298;9.056;2023-04-24T05:53:49;12.90;73.30
47590;DHT22;33316;52.298;9.056;2023-04-24T05:56:17;12.90;73.20
47590;DHT22;33316;52.298;9.056;2023-04-24T05:58:45;12.90;73.20
47590;DHT22;33316;52.298;9.056;2023-04-24T06:01:12;12.90;72.90
47590;DHT22;33316;52.298;9.056;2023-04-24T06:03:40;12.80;72.90
47590;DHT22;33316;52.298;9.056;2023-04-24T06:06:07;12.80;73.00
47590;DHT22;33316;52.298;9.056;2023-04-24T06:08:35;12.80;72.90
47590;DHT22;33316;52.298;9.056;2023-04-24T06:11:01;12.80;72.80
47590;DHT22;33316;52.298;9.056;2023-04-24T06:13:28;12.80;72.60
47590;DHT22;33316;52.298;9.056;2023-04-24T06:15:56;12.80;72.40
47590;DHT22;33316;52.298;9.056;2023-04-24T06:18:23;12.80;72.40
47590;DHT22;33316;52.298;9.056;2023-04-24T06:20:49;12.80;72.40
47590;DHT22;33316;52.298;9.056;2023-04-24T06:23:17;12.80;72.60
47590;DHT22;33316;52.298;9.056;2023-04-24T06:25:43;12.90;72.70
47590;DHT22;33316;52.298;9.056;2023-04-24T06:28:10;12.90;72.80
47590;DHT22;33316;52.298;9.056;2023-04-24T06:30:37;12.90;73.30
47590;DHT22;33316;52.298;9.056;2023-04-24T06:33:05;12.90;73.00
47590;DHT22;33316;52.298;9.056;2023-04-24T06:35:31;12.90;73.10
47590;DHT22;33316;52.298;9.056;2023-04-24T06:37:58;12.90;73.30
47590;DHT22;33316;52.298;9.056;2023-04-24T06:40:25;12.90;73.30
47590;DHT22;33316;52.298;9.056;2023-04-24T06:42:51;12.90;73.20
47590;DHT22;33316;52.298;9.056;2023-04-24T06:45:18;12.90;73.40
47590;DHT22;33316;52.298;9.056;2023-04-24T06:47:45;12.90;73.30
47590;DHT22;33316;52.298;9.056;2023-04-24T06:50:13;13.00;73.50
47590;DHT22;33316;52.298;9.056;2023-04-24T06:52:40;12.90;73.50
47590;DHT22;33316;52.298;9.056;2023-04-24T06:55:08;13.00;73.60
47590;DHT22;33316;52.298;9.056;2023-04-24T06:57:35;13.00;73.60
47590;DHT22;33316;52.298;9.056;2023-04-24T07:00:02;13.00;73.60
47590;DHT22;33316;52.298;9.056;2023-04-24T07:02:47;13.00;73.60
47590;DHT22;33316;52.298;9.056;2023-04-24T07:05:16;13.00;73.60
47590;DHT22;33316;52.298;9.056;2023-04-24T07:07:45;13.00;73.60
47590;DHT22;33316;52.298;9.056;2023-04-24T07:10:12;13.00;73.60
47590;DHT22;33316;52.298;9.056;2023-04-24T07:12:39;13.00;73.60
47590;DHT22;33316;52.298;9.056;2023-04-24T07:15:07;12.90;73.50
47590;DHT22;33316;52.298;9.056;2023-04-24T07:17:34;12.90;73.60
47590;DHT22;33316;52.298;9.056;2023-04-24T07:20:01;12.90;73.70
47590;DHT22;33316;52.298;9.056;2023-04-24T07:22:29;12.90;73.80
47590;DHT22;33316;52.298;9.056;2023-04-24T07:24:56;12.90;73.80
47590;DHT22;33316;52.298;9.056;2023-04-24T07:27:23;12.90;74.00
47590;DHT22;33316;52.298;9.056;2023-04-24T07:29:52;12.90;73.80
47590;DHT22;33316;52.298;9.056;2023-04-24T07:32:19;12.90;74.00
47590;DHT22;33316;52.298;9.056;2023-04-24T07:34:48;12.90;73.80
47590;DHT22;33316;52.298;9.056;2023-04-24T07:37:14;12.80;73.60
47590;DHT22;33316;52.298;9.056;2023-04-24T07:39:42;12.80;73.60
47590;DHT22;33316;52.298;9.056;2023-04-24T07:42:09;12.80;73.80
47590;DHT22;33316;52.298;9.056;2023-04-24T07:44:36;12.70;74.00
47590;DHT22;33316;52.298;9.056;2023-04-24T07:47:05;12.70;73.60
47590;DHT22;33316;52.298;9.056;2023-04-24T07:49:32;12.80;73.60
47590;DHT22;33316;52.298;9.056;2023-04-24T07:52:00;12.70;73.70
47590;DHT22;33316;52.298;9.056;2023-04-24T07:54:27;12.80;73.60
47590;DHT22;33316;52.298;9.056;2023-04-24T07:56:59;12.80;73.60
47590;DHT22;33316;52.298;9.056;2023-04-24T07:59:26;12.80;73.60
47590;DHT22;33316;52.298;9.056;2023-04-24T08:01:53;12.80;73.40
47590;DHT22;33316;52.298;9.056;2023-04-24T08:04:20;12.80;73.40
47590;DHT22;33316;52.298;9.056;2023-04-24T08:06:48;12.80;73.20
47590;DHT22;33316;52.298;9.056;2023-04-24T08:09:15;12.80;73.10
47590;DHT22;33316;52.298;9.056;2023-04-24T08:11:48;12.80;72.90
47590;DHT22;33316;52.298;9.056;2023-04-24T08:14:16;12.80;72.70
47590;DHT22;33316;52.298;9.056;2023-04-24T08:16:44;12.80;72.80
47590;DHT22;33316;52.298;9.056;2023-04-24T08:19:11;12.80;72.70
47590;DHT22;33316;52.298;9.056;2023-04-24T08:21:39;12.80;72.60
47590;DHT22;33316;52.298;9.056;2023-04-24T08:24:05;12.90;72.60
47590;DHT22;33316;52.298;9.056;2023-04-24T08:26:33;12.90;72.60
47590;DHT22;33316;52.298;9.056;2023-04-24T08:29:00;12.90;72.50
47590;DHT22;33316;52.298;9.056;2023-04-24T08:31:28;12.90;72.50
47590;DHT22;33316;52.298;9.056;2023-04-24T08:33:55;12.90;72.40
47590;DHT22;33316;52.298;9.056;2023-04-24T08:36:21;13.00;72.50
47590;DHT22;33316;52.298;9.056;2023-04-24T08:38:48;13.00;72.40
47590;DHT22;33316;52.298;9.056;2023-04-24T08:41:15;13.00;72.40
47590;DHT22;33316;52.298;9.056;2023-04-24T08:43:45;13.00;72.40
47590;DHT22;33316;52.298;9.056;2023-04-24T08:46:13;13.10;72.30
47590;DHT22;33316;52.298;9.056;2023-04-24T08:48:43;13.10;72.10
47590;DHT22;33316;52.298;9.056;2023-04-24T08:51:09;13.10;72.00
47590;DHT22;33316;52.298;9.056;2023-04-24T08:53:36;13.00;71.80
47590;DHT22;33316;52.298;9.056;2023-04-24T08:56:04;13.00;71.70
47590;DHT22;33316;52.298;9.056;2023-04-24T08:58:31;12.90;71.70
47590;DHT22;33316;52.298;9.056;2023-04-24T09:00:58;12.90;71.90
47590;DHT22;33316;52.298;9.056;2023-04-24T09:03:26;12.90;72.00
47590;DHT22;33316;52.298;9.056;2023-04-24T09:05:55;12.90;72.10
47590;DHT22;33316;52.298;9.056;2023-04-24T09:08:24;12.90;72.10
47590;DHT22;33316;52.298;9.056;2023-04-24T09:10:51;12.90;72.20
47590;DHT22;33316;52.298;9.056;2023-04-24T09:13:18;12.90;72.20
47590;DHT22;33316;52.298;9.056;2023-04-24T09:15:46;13.00;72.20
47590;DHT22;33316;52.298;9.056;2023-04-24T09:18:12;12.90;72.10
47590;DHT22;33316;52.298;9.056;2023-04-24T09:20:58;12.90;72.00
47590;DHT22;33316;52.298;9.056;2023-04-24T09:23:27;12.90;72.10
47590;DHT22;33316;52.298;9.056;2023-04-24T09:25:54;12.90;72.20
47590;DHT22;33316;52.298;9.056;2023-04-24T09:28:26;12.80;72.10
47590;DHT22;33316;52.298;9.056;2023-04-24T09:31:06;12.80;72.00
47590;DHT22;33316;52.298;9.056;2023-04-24T09:33:34;12.90;72.20
47590;DHT22;33316;52.298;9.056;2023-04-24T09:36:02;12.90;72.40
47590;DHT22;33316;52.298;9.056;2023-04-24T09:38:34;13.00;72.10
47590;DHT22;33316;52.298;9.056;2023-04-24T09:41:01;13.10;71.80
47590;DHT22;33316;52.298;9.056;2023-04-24T09:43:29;13.20;71.70
47590;DHT22;33316;52.298;9.056;2023-04-24T09:45:57;13.30;71.60
47590;DHT22;33316;52.298;9.056;2023-04-24T09:48:30;13.30;71.70
47590;DHT22;33316;52.298;9.056;2023-04-24T09:50:57;13.30;71.30
47590;DHT22;33316;52.298;9.056;2023-04-24T09:53:25;13.40;71.20
47590;DHT22;33316;52.298;9.056;2023-04-24T09:55:52;13.40;70.80
47590;DHT22;33316;52.298;9.056;2023-04-24T09:58:24;13.50;70.60
47590;DHT22;33316;52.298;9.056;2023-04-24T10:00:53;13.50;70.40
47590;DHT22;33316;52.298;9.056;2023-04-24T10:03:20;13.50;70.10
47590;DHT22;33316;52.298;9.056;2023-04-24T10:05:47;13.50;70.00
47590;DHT22;33316;52.298;9.056;2023-04-24T10:08:14;13.50;70.00
47590;DHT22;33316;52.298;9.056;2023-04-24T10:10:44;13.50;70.00
47590;DHT22;33316;52.298;9.056;2023-04-24T10:13:11;13.60;70.10
47590;DHT22;33316;52.298;9.056;2023-04-24T10:15:39;13.60;69.80
47590;DHT22;33316;52.298;9.056;2023-04-24T10:18:07;13.60;69.70
47590;DHT22;33316;52.298;9.056;2023-04-24T10:20:35;13.60;69.70
47590;DHT22;33316;52.298;9.056;2023-04-24T10:23:03;13.60;69.50
47590;DHT22;33316;52.298;9.056;2023-04-24T10:25:32;13.50;70.50
47590;DHT22;33316;52.298;9.056;2023-04-24T10:28:02;13.50;69.80
47590;DHT22;33316;52.298;9.056;2023-04-24T10:30:30;13.50;70.00
47590;DHT22;33316;52.298;9.056;2023-04-24T10:33:00;13.40;70.10
47590;DHT22;33316;52.298;9.056;2023-04-24T10:35:30;13.50;70.20
47590;DHT22;33316;52.298;9.056;2023-04-24T10:38:01;13.50;70.30
47590;DHT22;33316;52.298;9.056;2023-04-24T10:40:31;13.60;70.20
47590;DHT22;33316;52.298;9.056;2023-04-24T10:42:58;13.70;70.10
47590;DHT22;33316;52.298;9.056;2023-04-24T10:45:26;13.70;69.90
47590;DHT22;33316;52.298;9.056;2023-04-24T10:47:57;13.80;69.90
47590;DHT22;33316;52.298;9.056;2023-04-24T10:50:25;13.80;69.80
47590;DHT22;33316;52.298;9.056;2023-04-24T10:52:52;13.90;69.70
47590;DHT22;33316;52.298;9.056;2023-04-24T10:55:41;13.80;69.60
47590;DHT22;33316;52.298;9.056;2023-04-24T10:58:08;13.80;69.50
47590;DHT22;33316;52.298;9.056;2023-04-24T11:00:38;13.80;69.50
47590;DHT22;33316;52.298;9.056;2023-04-24T11:03:05;13.70;69.20
47590;DHT22;33316;52.298;9.056;2023-04-24T11:05:52;13.70;69.20
47590;DHT22;33316;52.298;9.056;2023-04-24T11:08:24;13.60;69.20
47590;DHT22;33316;52.298;9.056;2023-04-24T11:10:56;13.60;69.40
47590;DHT22;33316;52.298;9.056;2023-04-24T11:13:24;13.60;69.40
47590;DHT22;33316;52.298;9.056;2023-04-24T11:16:15;13.60;69.60
47590;DHT22;33316;52.298;9.056;2023-04-24T11:18:50;13.50;69.60
47590;DHT22;33316;52.298;9.056;2023-04-24T11:21:20;13.50;69.60
47590;DHT22;33316;52.298;9.056;2023-04-24T11:23:47;13.50;69.40
47590;DHT22;33316;52.298;9.056;2023-04-24T11:26:18;13.50;69.50
47590;DHT22;33316;52.298;9.056;2023-04-24T11:28:46;13.50;69.50
47590;DHT22;33316;52.298;9.056;2023-04-24T11:31:37;13.60;69.40
47590;DHT22;33316;52.298;9.056;2023-04-24T11:34:08;13.60;69.40
47590;DHT22;33316;52.298;9.056;2023-04-24T11:36:35;13.60;69.60
47590;DHT22;33316;52.298;9.056;2023-04-24T11:39:03;13.60;69.30
47590;DHT22;33316;52.298;9.056;2023-04-24T11:41:30;13.60;69.20
47590;DHT22;33316;52.298;9.056;2023-04-24T11:43:57;13.50;69.40
47590;DHT22;33316;52.298;9.056;2023-04-24T11:46:28;13.50;69.70
47590;DHT22;33316;52.298;9.056;2023-04-24T11:48:58;13.40;70.40
47590;DHT22;33316;52.298;9.056;2023-04-24T11:51:26;13.40;70.80
47590;DHT22;33316;52.298;9.056;2023-04-24T11:53:53;13.30;71.00
47590;DHT22;33316;52.298;9.056;2023-04-24T11:56:21;13.30;71.40
47590;DHT22;33316;52.298;9.056;2023-04-24T11:58:48;13.20;71.60
47590;DHT22;33316;52.298;9.056;2023-04-24T12:01:14;13.20;71.90
47590;DHT22;33316;52.298;9.056;2023-04-24T12:03:41;13.10;72.10
47590;DHT22;33316;52.298;9.056;2023-04-24T12:06:13;13.10;72.60
47590;DHT22;33316;52.298;9.056;2023-04-24T12:08:40;13.00;73.00
47590;DHT22;33316;52.298;9.056;2023-04-24T12:11:07;13.00;74.00
47590;DHT22;33316;52.298;9.056;2023-04-24T12:13:34;12.90;74.50
47590;DHT22;33316;52.298;9.056;2023-04-24T12:16:02;12.90;74.80
47590;DHT22;33316;52.298;9.056;2023-04-24T12:18:29;12.90;75.20
47590;DHT22;33316;52.298;9.056;2023-04-24T12:21:16;12.90;75.40
47590;DHT22;33316;52.298;9.056;2023-04-24T12:23:43;12.80;76.20
47590;DHT22;33316;52.298;9.056;2023-04-24T12:26:09;12.80;75.80
47590;DHT22;33316;52.298;9.056;2023-04-24T12:28:37;12.70;75.80
47590;DHT22;33316;52.298;9.056;2023-04-24T12:31:04;12.70;76.40
47590;DHT22;33316;52.298;9.056;2023-04-24T12:33:33;12.70;76.50
47590;DHT22;33316;52.298;9.056;2023-04-24T12:36:00;12.70;76.60
47590;DHT22;33316;52.298;9.056;2023-04-24T12:38:29;12.70;76.80
47590;DHT22;33316;52.298;9.056;2023-04-24T12:41:03;12.70;76.50
47590;DHT22;33316;52.298;9.056;2023-04-24T12:43:30;12.60;76.20
47590;DHT22;33316;52.298;9.056;2023-04-24T12:45:57;12.70;76.40
47590;DHT22;33316;52.298;9.056;2023-04-24T12:48:24;12.70;76.70
47590;DHT22;33316;52.298;9.056;2023-04-24T12:50:51;12.60;76.60
47590;DHT22;33316;52.298;9.056;2023-04-24T12:53:18;12.60;76.80
47590;DHT22;33316;52.298;9.056;2023-04-24T12:55:46;12.50;77.00
47590;DHT22;33316;52.298;9.056;2023-04-24T12:58:18;12.50;77.40
47590;DHT22;33316;52.298;9.056;2023-04-24T13:00:45;12.40;78.40
47590;DHT22;33316;52.298;9.056;2023-04-24T13:03:12;12.30;77.60
47590;DHT22;33316;52.298;9.056;2023-04-24T13:05:39;12.20;78.00
47590;DHT22;33316;52.298;9.056;2023-04-24T13:08:05;12.20;78.40
47590;DHT22;33316;52.298;9.056;2023-04-24T13:10:32;12.10;79.10
47590;DHT22;33316;52.298;9.056;2023-04-24T13:13:00;12.10;79.50
47590;DHT22;33316;52.298;9.056;2023-04-24T13:15:27;12.00;79.80
47590;DHT22;33316;52.298;9.056;2023-04-24T13:17:53;12.00;80.20
47590;DHT22;33316;52.298;9.056;2023-04-24T13:20:20;12.00;80.30
47590;DHT22;33316;52.298;9.056;2023-04-24T13:22:47;11.90;80.40
47590;DHT22;33316;52.298;9.056;2023-04-24T13:25:13;11.80;80.70
47590;DHT22;33316;52.298;9.056;2023-04-24T13:27:42;11.80;81.00
47590;DHT22;33316;52.298;9.056;2023-04-24T13:30:11;11.80;81.40
47590;DHT22;33316;52.298;9.056;2023-04-24T13:32:38;11.80;81.60
47590;DHT22;33316;52.298;9.056;2023-04-24T13:35:05;11.80;81.90
47590;DHT22;33316;52.298;9.056;2023-04-24T13:37:32;11.80;82.30
47590;DHT22;33316;52.298;9.056;2023-04-24T13:39:58;11.70;82.40
47590;DHT22;33316;52.298;9.056;2023-04-24T13:42:25;11.80;82.40
47590;DHT22;33316;52.298;9.056;2023-04-24T13:44:52;11.70;82.60
47590;DHT22;33316;52.298;9.056;2023-04-24T13:47:20;11.70;82.60
47590;DHT22;33316;52.298;9.056;2023-04-24T13:49:47;11.70;82.60
47590;DHT22;33316;52.298;9.056;2023-04-24T13:52:14;11.60;82.40
47590;DHT22;33316;52.298;9.056;2023-04-24T13:54:41;11.50;82.20
47590;DHT22;33316;52.298;9.056;2023-04-24T13:57:07;11.50;82.30
47590;DHT22;33316;52.298;9.056;2023-04-24T13:59:34;11.40;82.30
47590;DHT22;33316;52.298;9.056;2023-04-24T14:02:00;11.40;82.50
47590;DHT22;33316;52.298;9.056;2023-04-24T14:04:29;11.30;82.50
47590;DHT22;33316;52.298;9.056;2023-04-24T14:06:55;11.30;82.80
47590;DHT22;33316;52.298;9.056;2023-04-24T14:09:22;11.30;82.90
47590;DHT22;33316;52.298;9.056;2023-04-24T14:11:52;11.20;83.00
47590;DHT22;33316;52.298;9.056;2023-04-24T14:14:19;11.30;83.20
47590;DHT22;33316;52.298;9.056;2023-04-24T14:16:45;11.30;83.20
47590;DHT22;33316;52.298;9.056;2023-04-24T14:19:12;11.30;83.40
47590;DHT22;33316;52.298;9.056;2023-04-24T14:21:40;11.30;83.40
47590;DHT22;33316;52.298;9.056;2023-04-24T14:24:07;11.20;83.40
47590;DHT22;33316;52.298;9.056;2023-04-24T14:26:34;11.20;83.40
47590;DHT22;33316;52.298;9.056;2023-04-24T14:29:01;11.10;83.40
47590;DHT22;33316;52.298;9.056;2023-04-24T14:31:27;11.10;83.80
47590;DHT22;33316;52.298;9.056;2023-04-24T14:33:54;11.10;84.00
47590;DHT22;33316;52.298;9.056;2023-04-24T14:36:21;11.10;84.40
47590;DHT22;33316;52.298;9.056;2023-04-24T14:38:49;11.20;84.70
47590;DHT22;33316;52.298;9.056;2023-04-24T14:41:15;11.20;84.80
47590;DHT22;33316;52.298;9.056;2023-04-24T14:43:42;11.30;85.00
47590;DHT22;33316;52.298;9.056;2023-04-24T14:46:09;11.30;84.90
47590;DHT22;33316;52.298;9.056;2023-04-24T14:48:35;11.30;85.10
47590;DHT22;33316;52.298;9.056;2023-04-24T14:51:04;11.30;84.90
47590;DHT22;33316;52.298;9.056;2023-04-24T14:53:30;11.40;85.10
47590;DHT22;33316;52.298;9.056;2023-04-24T14:55:58;11.40;85.00
47590;DHT22;33316;52.298;9.056;2023-04-24T14:58:25;11.50;85.00
47590;DHT22;33316;52.298;9.056;2023-04-24T15:00:52;11.50;84.90
47590;DHT22;33316;52.298;9.056;2023-04-24T15:03:20;11.60;84.80
47590;DHT22;33316;52.298;9.056;2023-04-24T15:05:49;11.50;84.50
47590;DHT22;33316;52.298;9.056;2023-04-24T15:08:16;11.60;84.40
47590;DHT22;33316;52.298;9.056;2023-04-24T15:10:43;11.50;84.30
47590;DHT22;33316;52.298;9.056;2023-04-24T15:13:14;11.60;84.50
47590;DHT22;33316;52.298;9.056;2023-04-24T15:15:41;11.60;84.70
47590;DHT22;33316;52.298;9.056;2023-04-24T15:18:08;11.60;84.80
47590;DHT22;33316;52.298;9.056;2023-04-24T15:20:38;11.60;84.80
47590;DHT22;33316;52.298;9.056;2023-04-24T15:23:07;11.70;84.90
47590;DHT22;33316;52.298;9.056;2023-04-24T15:25:39;11.60;84.70
47590;DHT22;33316;52.298;9.056;2023-04-24T15:28:09;11.70;84.50
47590;DHT22;33316;52.298;9.056;2023-04-24T15:30:37;11.70;84.50
47590;DHT22;33316;52.298;9.056;2023-04-24T15:33:04;11.70;84.40